Webb Lake, Wisconsin
Current Conditions -  °F | °C
As of 12:55 PM on Friday 31 Oct 2014 (Local Time) from KRZN Reporting Station
Scattered Clouds Scattered Clouds  
Wind Chill: 29°   Ceiling: Unl
Heat Index: 34°   Visibility: 10mi
Dew Point: 19°   Wind: 6mph
Humidity: 52%   Direction: 10°N
Pressure: 30.53"   Gusts: NA
Location:  46.1107°N, 92.219°W
Report Text: KRZN 311755Z AUTO 01005KT 10SM SCT034 01/M07 A3053 RMK AO2 T00131075 10017 21021
Loading
Personal Weather Stations






























Interactive Weather Map
Tropical Storm Tracking
New forecast layout! Learn more

10-Day Weather Forecast

Advertisements
Track Severe Weather on mobile